Time;durP1;ratioP1;P1;durP2;ratioP2;P2;SDS_P1;SDS_P2;PMS_P1;PMS_P2;Temp;Humidity;BMP_temperature;BMP_pressure;BME280_temperature;BME280_humidity;BME280_pressure;Samples;Min_cycle;Max_cycle;Signal;HPM_P1;HPM_P2
2021/07/02 00:00:59;;;;;;;10.38;4.20;;;14.60;84.40;;;;;;4953815;28;20048;-78
2021/07/02 00:03:26;;;;;;;11.02;4.60;;;14.60;83.90;;;;;;4956135;28;20363;-75
2021/07/02 00:05:54;;;;;;;8.80;4.25;;;14.60;84.40;;;;;;4953623;28;20057;-79
2021/07/02 00:08:26;;;;;;;9.93;4.63;;;14.60;84.10;;;;;;4954356;28;20078;-76
2021/07/02 00:10:53;;;;;;;10.05;4.65;;;14.70;84.00;;;;;;4956963;28;20744;-76
2021/07/02 00:13:21;;;;;;;9.15;3.92;;;14.70;84.10;;;;;;4939590;28;20360;-77
2021/07/02 00:15:48;;;;;;;10.13;3.53;;;14.80;83.80;;;;;;4938705;28;20118;-78
2021/07/02 00:18:17;;;;;;;7.57;3.45;;;14.80;83.90;;;;;;4955284;28;20177;-77
2021/07/02 00:20:44;;;;;;;7.38;3.42;;;14.80;84.30;;;;;;4941625;28;20340;-78
2021/07/02 00:23:12;;;;;;;6.40;3.28;;;14.70;84.80;;;;;;4957658;28;20039;-77
2021/07/02 00:25:39;;;;;;;8.38;4.10;;;14.70;84.60;;;;;;4942994;28;20049;-77
2021/07/02 00:28:06;;;;;;;11.48;3.90;;;14.70;84.30;;;;;;4943310;28;20354;-77
2021/07/02 00:30:35;;;;;;;7.88;2.97;;;14.70;84.20;;;;;;4955335;28;20048;-76
2021/07/02 00:33:03;;;;;;;7.35;3.67;;;14.70;83.80;;;;;;4943461;28;20371;-78
2021/07/02 00:35:35;;;;;;;17.80;5.13;;;14.60;83.80;;;;;;4938316;28;20063;-75
2021/07/02 00:38:03;;;;;;;10.32;4.18;;;14.70;83.90;;;;;;4942877;28;20332;-75
2021/07/02 00:40:30;;;;;;;10.52;3.35;;;14.70;84.10;;;;;;4956638;28;20043;-77
2021/07/02 00:42:57;;;;;;;8.43;3.55;;;14.70;84.40;;;;;;4938990;28;20056;-75
2021/07/02 00:45:25;;;;;;;12.63;4.45;;;14.80;83.90;;;;;;4955912;28;20240;-77
2021/07/02 00:47:52;;;;;;;7.60;3.60;;;14.70;84.20;;;;;;4941844;28;20368;-77
2021/07/02 00:50:20;;;;;;;9.27;3.97;;;14.80;84.50;;;;;;4956193;28;20047;-78
2021/07/02 00:52:49;;;;;;;8.73;4.05;;;14.80;84.40;;;;;;4938979;28;20057;-77
2021/07/02 00:55:17;;;;;;;8.02;3.83;;;14.90;83.90;;;;;;4935157;28;20450;-78
2021/07/02 00:57:46;;;;;;;7.97;3.97;;;14.80;84.30;;;;;;4952015;28;20044;-76
2021/07/02 01:00:15;;;;;;;10.20;4.28;;;14.70;84.40;;;;;;4950235;28;20335;-77
2021/07/02 01:02:43;;;;;;;9.32;4.40;;;14.60;84.90;;;;;;4936564;28;20063;-77
2021/07/02 01:05:13;;;;;;;9.27;3.97;;;14.60;84.60;;;;;;4937591;28;20051;-76
2021/07/02 01:07:44;;;;;;;9.35;4.72;;;14.60;84.60;;;;;;4953796;28;20881;-76
2021/07/02 01:10:17;;;;;;;10.98;4.30;;;14.60;85.20;;;;;;4937686;28;20361;-76
2021/07/02 01:12:45;;;;;;;8.85;3.65;;;14.60;85.40;;;;;;4948152;28;20141;-78
2021/07/02 01:15:21;;;;;;;8.35;3.53;;;14.50;85.90;;;;;;4958878;28;20320;-76
2021/07/02 01:17:50;;;;;;;6.68;3.00;;;14.50;85.60;;;;;;4954373;28;20243;-76
2021/07/02 01:20:18;;;;;;;10.45;3.97;;;14.60;85.30;;;;;;4951985;28;20114;-75
2021/07/02 01:22:49;;;;;;;9.30;3.72;;;14.60;85.50;;;;;;4955793;28;20067;-76
2021/07/02 01:25:17;;;;;;;6.38;3.50;;;14.50;86.00;;;;;;4954422;28;20086;-77
2021/07/02 01:27:46;;;;;;;9.18;3.72;;;14.50;86.00;;;;;;4935784;28;20097;-77
2021/07/02 01:30:17;;;;;;;9.32;4.22;;;14.40;86.50;;;;;;4941517;28;20123;-77
2021/07/02 01:32:45;;;;;;;7.90;3.47;;;14.30;86.90;;;;;;4951865;28;20066;-76
2021/07/02 01:35:14;;;;;;;9.10;4.20;;;14.30;87.40;;;;;;4951414;28;20047;-76
2021/07/02 01:37:42;;;;;;;8.43;3.53;;;14.40;87.20;;;;;;4937779;28;20123;-76
2021/07/02 01:40:14;;;;;;;8.20;3.35;;;14.40;86.80;;;;;;4952439;28;20075;-74
2021/07/02 01:42:42;;;;;;;8.60;4.22;;;14.40;87.00;;;;;;4939050;28;20129;-75
2021/07/02 01:45:11;;;;;;;8.45;3.83;;;14.30;87.20;;;;;;4939790;28;20047;-77
2021/07/02 01:47:40;;;;;;;7.95;3.60;;;14.30;87.70;;;;;;4954336;28;20119;-76
2021/07/02 01:50:10;;;;;;;7.82;3.95;;;14.20;87.80;;;;;;4939621;28;20063;-76
2021/07/02 01:52:37;;;;;;;8.00;3.58;;;14.30;87.90;;;;;;4954011;28;20055;-77
2021/07/02 01:55:06;;;;;;;8.75;3.95;;;14.40;87.30;;;;;;4956470;28;20122;-76
2021/07/02 01:57:37;;;;;;;8.70;3.67;;;14.40;87.00;;;;;;4956097;28;20358;-76
2021/07/02 02:00:12;;;;;;;8.13;3.67;;;14.30;87.40;;;;;;4949052;28;20055;-76
2021/07/02 02:02:54;;;;;;;8.35;4.47;;;14.20;88.00;;;;;;4956701;28;20090;-77
2021/07/02 02:05:21;;;;;;;11.60;3.45;;;14.20;88.70;;;;;;4941196;28;20114;-76
2021/07/02 02:07:49;;;;;;;7.25;3.97;;;14.30;88.30;;;;;;4956019;28;20055;-76
2021/07/02 02:10:17;;;;;;;7.80;3.63;;;14.20;88.10;;;;;;4942380;28;20040;-76
2021/07/02 02:12:46;;;;;;;7.43;3.67;;;14.20;88.10;;;;;;4938191;28;20060;-76
2021/07/02 02:15:17;;;;;;;7.40;3.78;;;14.20;88.30;;;;;;4939445;28;20066;-76
2021/07/02 02:17:48;;;;;;;6.97;3.55;;;14.20;88.30;;;;;;4936894;28;20063;-76
2021/07/02 02:20:17;;;;;;;7.85;3.67;;;14.20;88.40;;;;;;4938243;28;20415;-76
2021/07/02 02:22:45;;;;;;;9.63;3.88;;;14.30;88.10;;;;;;4952221;28;20082;-74
2021/07/02 02:25:14;;;;;;;9.65;4.90;;;14.20;88.50;;;;;;4957135;28;20059;-74
2021/07/02 02:27:46;;;;;;;10.45;4.07;;;14.10;88.50;;;;;;4954677;28;20055;-77
2021/07/02 02:30:16;;;;;;;10.10;3.78;;;14.10;88.40;;;;;;4953687;28;20052;-77
2021/07/02 02:32:43;;;;;;;9.45;3.90;;;14.20;89.00;;;;;;4940471;28;20052;-77
2021/07/02 02:35:21;;;;;;;9.52;3.75;;;14.10;88.50;;;;;;4955043;28;20050;-76
2021/07/02 02:37:50;;;;;;;14.40;4.30;;;14.10;88.80;;;;;;4950698;28;20052;-77
2021/07/02 02:40:18;;;;;;;8.40;3.88;;;14.10;88.70;;;;;;4954324;28;20049;-77
2021/07/02 02:42:45;;;;;;;8.07;4.28;;;14.10;89.00;;;;;;4941163;28;20057;-77
2021/07/02 02:45:15;;;;;;;9.05;4.03;;;14.10;89.20;;;;;;4942376;28;20061;-76
2021/07/02 02:47:42;;;;;;;11.02;4.55;;;14.10;89.10;;;;;;4946385;28;20244;-78
2021/07/02 02:50:10;;;;;;;10.02;3.97;;;14.20;89.40;;;;;;4964019;28;20043;-77
2021/07/02 02:52:38;;;;;;;9.70;4.25;;;14.20;89.30;;;;;;4959410;28;20130;-76
2021/07/02 02:55:07;;;;;;;9.43;3.95;;;14.20;89.10;;;;;;4955454;28;20110;-75
2021/07/02 02:57:41;;;;;;;8.52;3.92;;;14.10;89.20;;;;;;4943149;28;20047;-76
2021/07/02 03:00:11;;;;;;;8.25;4.30;;;14.20;89.40;;;;;;4952593;28;20118;-75
2021/07/02 03:02:40;;;;;;;10.32;4.68;;;14.10;89.20;;;;;;4940497;28;20044;-77
2021/07/02 03:05:09;;;;;;;9.65;4.47;;;14.10;89.20;;;;;;4939665;28;20047;-75
2021/07/02 03:07:38;;;;;;;8.02;4.22;;;14.20;89.20;;;;;;4957028;28;20162;-76
2021/07/02 03:10:06;;;;;;;8.10;4.20;;;14.10;89.10;;;;;;4953700;28;20280;-75
2021/07/02 03:12:35;;;;;;;9.57;5.15;;;14.20;89.20;;;;;;4961227;28;20288;-75
2021/07/02 03:15:03;;;;;;;11.80;4.40;;;14.20;89.20;;;;;;4942976;28;20544;-77
2021/07/02 03:17:30;;;;;;;10.27;4.38;;;14.20;89.40;;;;;;4956168;28;20231;-77
2021/07/02 03:19:59;;;;;;;11.48;4.85;;;14.30;88.90;;;;;;4940339;28;20052;-75
2021/07/02 03:22:28;;;;;;;10.70;4.95;;;14.10;89.10;;;;;;4946523;28;20036;-76
2021/07/02 03:24:57;;;;;;;8.68;4.18;;;14.10;89.20;;;;;;4954511;28;20035;-75
2021/07/02 03:27:25;;;;;;;9.55;3.90;;;14.10;89.20;;;;;;4959684;28;20097;-75
2021/07/02 03:29:52;;;;;;;8.70;3.85;;;14.20;89.10;;;;;;4942082;28;20047;-76
2021/07/02 03:32:20;;;;;;;9.43;4.45;;;14.20;89.10;;;;;;4941082;28;20055;-77
2021/07/02 03:34:48;;;;;;;8.90;4.60;;;14.20;88.80;;;;;;4943456;28;20040;-74
2021/07/02 03:37:21;;;;;;;9.05;4.18;;;14.20;88.90;;;;;;4943510;28;20287;-76
2021/07/02 03:39:51;;;;;;;9.07;4.22;;;14.20;88.60;;;;;;4935585;28;20063;-76
2021/07/02 03:42:19;;;;;;;10.38;4.45;;;14.20;89.10;;;;;;4941832;28;20052;-77
2021/07/02 03:44:46;;;;;;;11.25;4.20;;;14.20;89.00;;;;;;4944180;28;20052;-74
2021/07/02 03:47:14;;;;;;;11.52;4.90;;;14.20;89.00;;;;;;4940325;28;20043;-75
2021/07/02 03:49:45;;;;;;;9.40;4.70;;;14.30;89.10;;;;;;4954597;28;20051;-75
2021/07/02 03:52:14;;;;;;;10.40;4.68;;;14.30;88.70;;;;;;4940406;28;20043;-75
2021/07/02 03:54:43;;;;;;;9.40;4.50;;;14.20;88.70;;;;;;4953495;28;20413;-77
2021/07/02 03:57:13;;;;;;;8.45;4.72;;;14.30;89.00;;;;;;4946806;28;20036;-77
2021/07/02 03:59:42;;;;;;;9.38;4.57;;;14.40;89.30;;;;;;4948301;28;20434;-76
2021/07/02 04:02:10;;;;;;;8.93;4.18;;;14.40;88.90;;;;;;4941861;28;20054;-76
2021/07/02 04:04:37;;;;;;;9.52;3.92;;;14.40;88.70;;;;;;4938199;28;20051;-75
2021/07/02 04:07:09;;;;;;;10.05;4.32;;;14.40;88.80;;;;;;4955376;28;20397;-75
2021/07/02 04:09:37;;;;;;;9.45;4.40;;;14.50;89.20;;;;;;4936706;28;20043;-75
2021/07/02 04:12:08;;;;;;;10.23;4.90;;;14.60;88.40;;;;;;4955400;28;20063;-77
2021/07/02 04:14:36;;;;;;;9.05;4.32;;;14.50;88.40;;;;;;4945481;28;20043;-75
2021/07/02 04:17:04;;;;;;;9.77;3.88;;;14.50;88.70;;;;;;4944023;28;20367;-75
2021/07/02 04:19:31;;;;;;;9.02;4.90;;;14.50;88.50;;;;;;4956004;28;20122;-76
2021/07/02 04:21:58;;;;;;;9.80;4.82;;;14.50;88.80;;;;;;4954521;28;20327;-76
2021/07/02 04:24:28;;;;;;;8.02;4.60;;;14.40;88.40;;;;;;4955362;28;20095;-77
2021/07/02 04:26:55;;;;;;;;;;;14.50;88.60;;;;;;4942145;28;20056;-76
2021/07/02 04:29:26;;;;;;;8.57;3.90;;;14.50;88.40;;;;;;4940124;28;19941;-76
2021/07/02 04:31:53;;;;;;;15.05;4.32;;;14.70;88.30;;;;;;4944052;28;20055;-77
2021/07/02 04:34:20;;;;;;;7.70;3.63;;;14.70;87.60;;;;;;4935619;28;20116;-76
2021/07/02 04:36:48;;;;;;;7.85;4.30;;;14.60;88.10;;;;;;4951881;28;20052;-76
2021/07/02 04:39:18;;;;;;;8.02;3.97;;;14.60;88.70;;;;;;4943443;28;20074;-76
2021/07/02 04:41:46;;;;;;;13.30;4.13;;;14.60;87.70;;;;;;4940430;28;20054;-78
2021/07/02 04:44:14;;;;;;;9.60;4.53;;;14.60;88.10;;;;;;4939676;28;20379;-76
2021/07/02 04:46:43;;;;;;;8.25;4.75;;;14.70;87.50;;;;;;4939814;28;20048;-76
2021/07/02 04:49:14;;;;;;;8.18;4.45;;;14.70;87.90;;;;;;4952079;28;20296;-76
2021/07/02 04:51:41;;;;;;;11.18;4.43;;;14.60;87.80;;;;;;4956054;28;20223;-76
2021/07/02 04:54:09;;;;;;;8.48;4.63;;;14.60;87.90;;;;;;4954366;28;20036;-76
2021/07/02 04:56:39;;;;;;;9.70;4.38;;;14.70;88.10;;;;;;4935411;28;20129;-76
2021/07/02 04:59:07;;;;;;;9.20;4.60;;;14.60;87.50;;;;;;4956545;28;20057;-77
2021/07/02 05:01:34;;;;;;;8.82;4.30;;;14.70;88.10;;;;;;4937443;28;20059;-76
2021/07/02 05:04:03;;;;;;;9.25;3.83;;;14.70;87.50;;;;;;4954352;28;20048;-77
2021/07/02 05:06:34;;;;;;;9.07;4.53;;;14.80;87.50;;;;;;4938602;28;20606;-74
2021/07/02 05:09:05;;;;;;;7.45;3.95;;;14.80;87.80;;;;;;4957070;28;20055;-76
2021/07/02 05:11:34;;;;;;;8.77;4.47;;;14.60;87.70;;;;;;4937736;28;20319;-75
2021/07/02 05:14:03;;;;;;;9.40;4.28;;;14.70;87.50;;;;;;4942845;28;20347;-77
2021/07/02 05:16:37;;;;;;;13.02;5.15;;;14.70;87.40;;;;;;4953044;28;20052;-77
2021/07/02 05:19:06;;;;;;;9.88;4.50;;;14.80;87.30;;;;;;4939289;28;20083;-78
2021/07/02 05:21:35;;;;;;;10.90;4.60;;;14.70;87.20;;;;;;4954993;28;20039;-76
2021/07/02 05:24:02;;;;;;;11.82;4.55;;;14.80;87.40;;;;;;4956385;28;20089;-78
2021/07/02 05:26:30;;;;;;;11.57;4.57;;;14.90;87.20;;;;;;4954308;28;20247;-76
2021/07/02 05:28:57;;;;;;;9.60;4.88;;;15.00;87.00;;;;;;4956829;28;20054;-75
2021/07/02 05:31:25;;;;;;;9.68;4.80;;;15.20;86.40;;;;;;4955405;28;20074;-76
2021/07/02 05:33:52;;;;;;;10.50;5.22;;;15.30;86.40;;;;;;4941821;28;20236;-77
2021/07/02 05:36:21;;;;;;;10.57;5.10;;;15.20;85.70;;;;;;4941235;29;20055;-77
2021/07/02 05:38:48;;;;;;;12.25;5.03;;;15.20;86.20;;;;;;4953609;28;20116;-77
2021/07/02 05:41:16;;;;;;;10.23;4.72;;;15.30;85.90;;;;;;4947591;28;20059;-77
2021/07/02 05:43:43;;;;;;;11.48;5.15;;;15.30;85.70;;;;;;4940607;28;20055;-77
2021/07/02 05:46:12;;;;;;;12.75;5.82;;;15.40;85.40;;;;;;4958691;28;20052;-76
2021/07/02 05:48:39;;;;;;;10.68;4.72;;;15.40;85.00;;;;;;4958604;28;20102;-77
2021/07/02 05:51:07;;;;;;;13.48;5.30;;;15.50;85.10;;;;;;4936255;28;20047;-76
2021/07/02 05:53:35;;;;;;;13.90;6.00;;;15.50;83.80;;;;;;4939809;28;20101;-78
2021/07/02 05:56:03;;;;;;;12.25;5.93;;;15.50;83.20;;;;;;4956665;28;20339;-77
2021/07/02 05:58:30;;;;;;;12.48;5.13;;;15.40;83.50;;;;;;4941811;28;20357;-77
2021/07/02 06:00:57;;;;;;;13.73;4.93;;;15.70;83.20;;;;;;4938818;28;20043;-76
2021/07/02 06:03:25;;;;;;;12.00;4.85;;;15.70;82.10;;;;;;4957946;28;20047;-76
2021/07/02 06:05:52;;;;;;;10.80;5.13;;;15.80;82.00;;;;;;4940973;28;20401;-76
2021/07/02 06:08:21;;;;;;;13.05;5.80;;;15.90;81.40;;;;;;4958956;28;20323;-76
2021/07/02 06:10:49;;;;;;;12.63;5.90;;;15.90;81.50;;;;;;4939495;29;20122;-78
2021/07/02 06:13:17;;;;;;;10.10;4.88;;;15.70;81.60;;;;;;4944283;28;20062;-75
2021/07/02 06:15:49;;;;;;;15.70;4.97;;;15.70;81.70;;;;;;4940082;28;20141;-77
2021/07/02 06:18:16;;;;;;;11.73;4.90;;;15.80;81.30;;;;;;4955534;28;20423;-77
2021/07/02 06:20:43;;;;;;;14.57;6.75;;;16.00;80.50;;;;;;4955537;28;20093;-77
2021/07/02 06:23:11;;;;;;;14.13;5.72;;;15.90;81.60;;;;;;4941188;28;20256;-75
2021/07/02 06:25:39;;;;;;;13.55;6.00;;;16.00;81.30;;;;;;4938730;29;21348;-77
2021/07/02 06:28:08;;;;;;;10.82;5.32;;;16.10;81.40;;;;;;4954020;28;20035;-76
2021/07/02 06:30:36;;;;;;;10.85;5.90;;;16.40;80.60;;;;;;4944870;28;20363;-77
2021/07/02 06:33:03;;;;;;;12.55;5.82;;;16.60;80.20;;;;;;4952422;28;21791;-76
2021/07/02 06:35:30;;;;;;;12.95;5.70;;;16.60;78.80;;;;;;4939968;29;20078;-75
2021/07/02 06:37:57;;;;;;;9.70;5.10;;;16.50;79.30;;;;;;4939360;29;20110;-77
2021/07/02 06:40:25;;;;;;;13.75;5.80;;;16.50;79.50;;;;;;4938725;28;20048;-76
2021/07/02 06:42:53;;;;;;;13.75;5.88;;;16.30;78.90;;;;;;4957210;28;20340;-77
2021/07/02 06:45:22;;;;;;;11.27;5.40;;;16.20;79.70;;;;;;4941802;28;20228;-76
2021/07/02 06:47:56;;;;;;;12.60;5.80;;;16.20;79.70;;;;;;4955115;28;20047;-76
2021/07/02 06:50:24;;;;;;;13.52;5.70;;;16.30;79.80;;;;;;4953891;28;20058;-77
2021/07/02 06:52:52;;;;;;;12.05;5.70;;;16.20;79.20;;;;;;4946651;28;20089;-78
2021/07/02 06:55:19;;;;;;;13.00;5.63;;;16.30;79.60;;;;;;4955723;28;20213;-77
2021/07/02 06:57:47;;;;;;;15.27;6.00;;;16.30;79.80;;;;;;4955568;28;20052;-79
2021/07/02 07:00:17;;;;;;;10.93;5.35;;;16.30;79.80;;;;;;4954362;28;20047;-74
2021/07/02 07:02:46;;;;;;;10.30;5.95;;;16.30;79.20;;;;;;4939748;28;20107;-76
2021/07/02 07:05:14;;;;;;;10.05;5.78;;;16.20;78.70;;;;;;4940003;28;20064;-77
2021/07/02 07:07:42;;;;;;;14.43;6.03;;;16.40;78.80;;;;;;4955133;28;20343;-76
2021/07/02 07:10:11;;;;;;;12.85;5.07;;;16.60;77.40;;;;;;4954406;28;20067;-77
2021/07/02 07:12:38;;;;;;;11.32;5.15;;;16.80;77.10;;;;;;4952588;28;20086;-77
2021/07/02 07:15:07;;;;;;;11.75;5.15;;;16.70;77.80;;;;;;4955510;28;20244;-76
2021/07/02 07:17:35;;;;;;;12.32;5.68;;;16.80;77.00;;;;;;4942429;28;20347;-76
2021/07/02 07:20:04;;;;;;;13.77;6.22;;;17.30;76.10;;;;;;4939001;29;20111;-76
2021/07/02 07:22:39;;;;;;;8.05;4.65;;;17.60;75.40;;;;;;4941887;29;20052;-76
2021/07/02 07:25:06;;;;;;;12.45;5.50;;;18.10;74.90;;;;;;4939962;28;20079;-77
2021/07/02 07:27:34;;;;;;;12.57;6.35;;;18.50;71.60;;;;;;4939558;29;20162;-76
2021/07/02 07:30:01;;;;;;;11.25;5.53;;;18.60;71.10;;;;;;4954494;28;20044;-77
2021/07/02 07:32:29;;;;;;;8.65;4.70;;;18.80;71.30;;;;;;4957881;28;20047;-77
2021/07/02 07:34:58;;;;;;;12.55;5.00;;;18.80;72.20;;;;;;4942848;28;20071;-79
2021/07/02 07:37:30;;;;;;;10.15;5.15;;;18.90;70.80;;;;;;4960363;28;20087;-77
2021/07/02 07:39:58;;;;;;;13.77;5.18;;;18.90;69.70;;;;;;4962897;28;20110;-77
2021/07/02 07:42:26;;;;;;;9.38;4.57;;;18.80;70.30;;;;;;4943503;28;20048;-76
2021/07/02 07:44:55;;;;;;;20.42;5.70;;;18.90;70.50;;;;;;4958935;28;20050;-78
2021/07/02 07:47:22;;;;;;;9.15;5.25;;;18.90;70.50;;;;;;4959600;28;20419;-77
2021/07/02 07:49:49;;;;;;;9.65;4.50;;;18.70;70.10;;;;;;4944589;29;20094;-75
2021/07/02 07:52:19;;;;;;;10.38;5.22;;;19.00;70.70;;;;;;4946795;28;20054;-76
2021/07/02 07:54:48;;;;;;;11.32;5.05;;;19.20;69.50;;;;;;4941428;28;20046;-76
2021/07/02 07:57:16;;;;;;;8.27;4.50;;;19.30;68.90;;;;;;4960306;28;20125;-77
2021/07/02 07:59:43;;;;;;;11.32;5.28;;;19.40;68.50;;;;;;4945071;28;20055;-76
2021/07/02 08:02:11;;;;;;;9.43;4.55;;;19.60;67.80;;;;;;4940065;28;20051;-76
2021/07/02 08:04:39;;;;;;;14.55;6.47;;;19.70;66.10;;;;;;4942367;28;20048;-76
2021/07/02 08:07:06;;;;;;;9.93;4.93;;;19.40;66.70;;;;;;4959400;28;20090;-77
2021/07/02 08:09:40;;;;;;;12.30;5.07;;;19.30;68.40;;;;;;4958130;28;20052;-78
2021/07/02 08:12:09;;;;;;;9.73;5.28;;;19.40;67.80;;;;;;4944590;28;20071;-77
2021/07/02 08:14:38;;;;;;;12.48;5.22;;;19.30;66.90;;;;;;4955903;28;20121;-76
2021/07/02 08:17:05;;;;;;;12.43;4.60;;;19.60;65.20;;;;;;4942035;28;20051;-79
2021/07/02 08:19:34;;;;;;;11.43;5.57;;;19.60;66.30;;;;;;4956311;28;20063;-77
2021/07/02 08:22:01;;;;;;;12.23;5.03;;;20.30;64.10;;;;;;4944249;28;20060;-77
2021/07/02 08:24:31;;;;;;;;;;;20.30;63.70;;;;;;4945672;28;20063;-77
2021/07/02 08:27:02;;;;;;;11.98;5.20;;;20.30;63.80;;;;;;4940368;29;20145;-76
2021/07/02 08:29:30;;;;;;;13.55;5.03;;;20.60;62.60;;;;;;4942714;28;20050;-76
2021/07/02 08:31:59;;;;;;;9.25;4.65;;;20.60;63.00;;;;;;4959015;28;20052;-76
2021/07/02 08:34:26;;;;;;;8.52;5.28;;;20.40;60.50;;;;;;4956692;28;20064;-77
2021/07/02 08:36:54;;;;;;;12.23;5.30;;;20.00;61.60;;;;;;4939294;28;20071;-76
2021/07/02 08:39:22;;;;;;;10.55;5.03;;;20.00;61.90;;;;;;4938199;28;20047;-78
2021/07/02 08:41:49;;;;;;;11.05;5.03;;;20.10;62.20;;;;;;4946165;28;20063;-76
2021/07/02 08:44:17;;;;;;;9.02;5.35;;;19.70;61.30;;;;;;4942380;28;20114;-78
2021/07/02 08:46:47;;;;;;;11.20;5.35;;;19.90;63.60;;;;;;4938227;28;20114;-76
2021/07/02 08:49:15;;;;;;;9.38;4.15;;;20.10;62.20;;;;;;4939137;28;20051;-76
2021/07/02 08:51:42;;;;;;;12.95;5.00;;;20.90;61.80;;;;;;4939634;28;20367;-75
2021/07/02 08:54:14;;;;;;;10.13;4.78;;;20.80;60.80;;;;;;4949304;28;20342;-75
2021/07/02 08:56:55;;;;;;;9.90;5.13;;;20.80;60.80;;;;;;4932091;28;20137;-77
2021/07/02 08:59:23;;;;;;;9.10;4.15;;;20.80;60.40;;;;;;4936907;28;20055;-76
2021/07/02 09:01:53;;;;;;;8.55;4.38;;;20.80;58.30;;;;;;4945644;28;20079;-79
2021/07/02 09:04:22;;;;;;;11.30;4.05;;;20.40;59.50;;;;;;4950127;28;20053;-76
2021/07/02 09:07:07;;;;;;;13.70;5.03;;;19.90;61.30;;;;;;4933476;28;20252;-76
2021/07/02 09:09:50;;;;;;;11.25;4.05;;;19.70;61.70;;;;;;4938161;28;20075;-75
2021/07/02 09:12:21;;;;;;;11.50;5.00;;;19.80;62.20;;;;;;4951453;28;20083;-76
2021/07/02 09:15:00;;;;;;;9.88;4.82;;;19.90;62.60;;;;;;4941546;28;20052;-78
2021/07/02 09:17:37;;;;;;;9.23;4.68;;;20.40;61.30;;;;;;4938916;28;20065;-77
2021/07/02 09:20:08;;;;;;;10.35;4.25;;;20.60;59.20;;;;;;4939462;28;20344;-77
2021/07/02 09:22:44;;;;;;;10.40;4.55;;;21.00;60.30;;;;;;4933495;28;20417;-78
2021/07/02 09:25:20;;;;;;;6.45;3.60;;;20.90;59.20;;;;;;4939666;28;20078;-77
2021/07/02 09:27:48;;;;;;;8.82;4.10;;;20.80;59.20;;;;;;4937394;28;20051;-76
2021/07/02 09:30:18;;;;;;;8.23;4.18;;;21.00;58.50;;;;;;4944276;28;20059;-75
2021/07/02 09:32:48;;;;;;;7.65;4.15;;;20.90;57.40;;;;;;4948743;28;20208;-75
2021/07/02 09:35:18;;;;;;;9.63;4.15;;;20.90;56.50;;;;;;4955617;28;20346;-78
2021/07/02 09:37:47;;;;;;;13.63;5.07;;;21.50;55.50;;;;;;4955344;28;20056;-76
2021/07/02 09:40:18;;;;;;;7.82;3.40;;;21.20;53.90;;;;;;4933987;28;20051;-75
2021/07/02 09:42:46;;;;;;;9.57;3.95;;;20.80;55.90;;;;;;4955254;28;20366;-77
2021/07/02 09:45:15;;;;;;;8.18;3.42;;;21.00;56.40;;;;;;4938586;28;20066;-76
2021/07/02 09:47:45;;;;;;;10.27;4.10;;;20.70;57.80;;;;;;4942009;28;20044;-76
2021/07/02 09:50:23;;;;;;;9.68;3.97;;;20.70;59.50;;;;;;4938307;28;20054;-76
2021/07/02 09:52:52;;;;;;;7.32;3.75;;;20.60;60.50;;;;;;4940343;28;20243;-77
2021/07/02 09:55:22;;;;;;;10.80;4.07;;;20.50;60.90;;;;;;4949549;28;20043;-75
2021/07/02 09:57:53;;;;;;;10.23;3.50;;;20.60;61.40;;;;;;4945749;28;20063;-76
2021/07/02 10:00:22;;;;;;;7.93;3.97;;;20.60;61.20;;;;;;4936963;28;20081;-77
2021/07/02 10:02:55;;;;;;;10.23;3.80;;;20.80;60.70;;;;;;4937254;28;20099;-75
2021/07/02 10:05:24;;;;;;;8.13;3.67;;;21.30;59.10;;;;;;4935378;28;20134;-77
2021/07/02 10:08:01;;;;;;;7.70;3.88;;;21.60;58.40;;;;;;4939430;28;20248;-79
2021/07/02 10:10:31;;;;;;;8.63;3.85;;;22.10;56.60;;;;;;4928322;28;20047;-76
2021/07/02 10:12:59;;;;;;;7.55;3.83;;;23.00;52.20;;;;;;4931617;28;20310;-75
2021/07/02 10:15:29;;;;;;;8.95;3.80;;;23.00;51.20;;;;;;4931871;28;20040;-76
2021/07/02 10:17:59;;;;;;;7.38;3.75;;;22.60;51.60;;;;;;4949514;28;20052;-76
2021/07/02 10:20:30;;;;;;;7.97;3.33;;;23.20;52.90;;;;;;4951018;28;20094;-76
2021/07/02 10:22:59;;;;;;;9.13;3.95;;;23.90;50.80;;;;;;4944643;28;21035;-75
2021/07/02 10:25:29;;;;;;;8.77;3.55;;;24.80;47.90;;;;;;4951596;28;20131;-76
2021/07/02 10:27:57;;;;;;;7.95;3.72;;;24.50;48.00;;;;;;4938097;28;20082;-76
2021/07/02 10:30:25;;;;;;;7.03;3.30;;;24.80;49.80;;;;;;4936146;28;20089;-76
2021/07/02 10:32:57;;;;;;;9.20;3.28;;;25.60;45.00;;;;;;4945814;28;20059;-76
2021/07/02 10:35:24;;;;;;;7.47;3.15;;;25.60;40.90;;;;;;4936442;28;20047;-75
2021/07/02 10:37:56;;;;;;;9.48;3.15;;;24.70;44.80;;;;;;4948079;28;20059;-75
2021/07/02 10:40:43;;;;;;;7.18;3.45;;;26.00;41.90;;;;;;4931977;28;20051;-76
2021/07/02 10:43:19;;;;;;;5.35;2.95;;;25.70;43.80;;;;;;4949848;28;20047;-75
2021/07/02 10:46:10;;;;;;;8.43;3.30;;;25.40;44.60;;;;;;4946773;28;20263;-76
2021/07/02 10:48:56;;;;;;;9.73;3.35;;;24.50;41.90;;;;;;4951502;28;20043;-76
2021/07/02 10:51:53;;;;;;;6.63;2.97;;;23.60;44.80;;;;;;4952185;28;20114;-75
2021/07/02 10:54:38;;;;;;;7.68;2.88;;;25.40;40.70;;;;;;4952380;28;20048;-77
2021/07/02 10:57:18;;;;;;;5.95;3.13;;;24.30;42.20;;;;;;4952938;28;20047;-77
2021/07/02 11:00:04;;;;;;;;;;;25.00;43.70;;;;;;4956570;28;20048;-78
2021/07/02 11:02:41;;;;;;;6.97;3.00;;;24.90;42.90;;;;;;4936400;28;19923;-76
2021/07/02 11:05:30;;;;;;;5.82;2.85;;;24.30;44.40;;;;;;4951449;28;20268;-75
2021/07/02 11:07:59;;;;;;;8.52;3.28;;;25.90;43.70;;;;;;4941000;28;20040;-73
2021/07/02 11:10:59;;;;;;;8.13;2.97;;;28.30;37.50;;;;;;4942030;28;20074;-78
2021/07/02 11:13:27;;;;;;;5.70;3.00;;;29.80;33.20;;;;;;4960929;28;20051;-77
2021/07/02 11:16:08;;;;;;;5.00;2.85;;;30.20;33.30;;;;;;4941356;28;20098;-76
2021/07/02 11:18:43;;;;;;;7.05;3.22;;;29.30;32.80;;;;;;4956806;28;20118;-76
2021/07/02 11:21:19;;;;;;;6.78;2.95;;;27.60;36.00;;;;;;4946729;28;20123;-77
2021/07/02 11:23:48;;;;;;;5.75;3.30;;;28.50;34.60;;;;;;4935253;28;20061;-76
2021/07/02 11:26:49;;;;;;;7.32;2.95;;;29.40;33.80;;;;;;4957548;28;20159;-75
2021/07/02 11:29:36;;;;;;;5.47;2.75;;;30.70;31.60;;;;;;4961147;28;20051;-77
2021/07/02 11:32:07;;;;;;;5.90;2.47;;;32.00;29.30;;;;;;4939171;28;20275;-77
2021/07/02 11:34:34;;;;;;;7.50;2.95;;;29.60;29.40;;;;;;4956447;28;20295;-76
2021/07/02 11:37:10;;;;;;;7.13;2.95;;;29.60;30.90;;;;;;4959887;28;20127;-77
2021/07/02 11:39:39;;;;;;;6.00;2.88;;;27.60;35.60;;;;;;4956734;28;20056;-77
2021/07/02 11:42:12;;;;;;;6.38;2.65;;;30.20;31.50;;;;;;4939458;28;20127;-77
2021/07/02 11:44:40;;;;;;;7.57;2.88;;;30.60;30.20;;;;;;4937298;28;20363;-76
2021/07/02 11:47:09;;;;;;;4.75;2.63;;;30.20;31.80;;;;;;4937341;28;20074;-76
2021/07/02 11:49:49;;;;;;;6.22;2.65;;;28.10;34.90;;;;;;4951191;28;20390;-76
2021/07/02 11:52:17;;;;;;;4.30;2.40;;;27.50;37.30;;;;;;4949405;28;20058;-76
2021/07/02 11:54:54;;;;;;;4.50;2.33;;;27.10;38.60;;;;;;4937606;28;20051;-74
2021/07/02 11:57:26;;;;;;;5.88;2.72;;;27.20;37.40;;;;;;4942344;28;20286;-75
2021/07/02 12:00:08;;;;;;;4.55;2.47;;;28.90;34.20;;;;;;4961270;28;20056;-76
2021/07/02 12:02:48;;;;;;;5.10;2.58;;;28.90;33.90;;;;;;4941240;28;20166;-78
2021/07/02 12:05:16;;;;;;;4.95;2.30;;;27.70;35.40;;;;;;4942102;28;20374;-77
2021/07/02 12:07:52;;;;;;;27.05;4.72;;;27.20;38.40;;;;;;4957647;28;20271;-76
2021/07/02 12:10:19;;;;;;;5.25;2.60;;;27.30;37.30;;;;;;4956349;28;20254;-76
2021/07/02 12:12:57;;;;;;;5.53;2.72;;;28.90;34.30;;;;;;4959257;28;20067;-78
2021/07/02 12:15:26;;;;;;;6.47;3.25;;;29.80;33.60;;;;;;4940047;28;20068;-76
2021/07/02 12:18:05;;;;;;;7.82;2.88;;;31.20;31.60;;;;;;4937664;28;20036;-77
2021/07/02 12:20:33;;;;;;;5.68;2.78;;;32.00;29.10;;;;;;4935745;28;20086;-77
2021/07/02 12:23:07;;;;;;;5.28;2.70;;;32.50;28.30;;;;;;4952404;28;20055;-77
2021/07/02 12:25:44;;;;;;;5.85;2.72;;;32.20;28.30;;;;;;4955935;28;20378;-76
2021/07/02 12:28:13;;;;;;;5.72;2.90;;;32.50;28.20;;;;;;4940383;28;20369;-77
2021/07/02 12:31:01;;;;;;;6.40;2.40;;;34.00;27.50;;;;;;4957507;28;20050;-75
2021/07/02 12:33:34;;;;;;;4.03;1.65;;;31.90;29.70;;;;;;4938849;28;20051;-75
2021/07/02 12:36:08;;;;;;;4.90;2.67;;;30.20;32.30;;;;;;4938860;28;20296;-76
2021/07/02 12:38:36;;;;;;;6.97;3.28;;;27.90;34.30;;;;;;4952387;28;20056;-76
2021/07/02 12:41:04;;;;;;;5.95;2.28;;;27.30;36.50;;;;;;4958273;28;20058;-75
2021/07/02 12:43:33;;;;;;;4.95;2.58;;;27.10;38.00;;;;;;4937190;28;20052;-74
2021/07/02 12:46:02;;;;;;;6.20;2.92;;;27.00;37.10;;;;;;4931809;28;20118;-76
2021/07/02 12:48:29;;;;;;;9.43;2.67;;;29.40;32.90;;;;;;4939981;28;20051;-75
2021/07/02 12:50:59;;;;;;;9.02;3.15;;;30.80;31.20;;;;;;4942031;28;20491;-76
2021/07/02 12:56:26;;;;;;;7.35;2.72;;;31.00;30.90;;;;;;4956266;28;20070;-75
2021/07/02 12:58:55;;;;;;;7.78;2.70;;;29.60;33.30;;;;;;4951042;28;20645;-75
2021/07/02 13:01:22;;;;;;;;;;;27.90;34.50;;;;;;4953329;28;20104;-74